Time,TemperatureF,DewpointF,PressureIn,WindDirection,WindDirectionDegrees,WindSpeedMPH,WindSpeedGustMPH,Humidity,HourlyPrecipIn,Conditions,Clouds,dailyrainin,SoftwareType,DateUTC
2013-02-24 00:00:00,74.7,70.7,29.97,WSW,248,1.1,1.6,87,0.00,,,0.00,WUHU216HW,2013-02-24 05:00:00,
2013-02-24 00:01:00,74.7,70.7,29.97,South,180,0.4,1.6,87,0.00,,,0.00,WUHU216HW,2013-02-24 05:01:00,
2013-02-24 00:06:00,74.7,70.7,29.97,WSW,248,1.3,1.6,87,0.00,,,0.00,WUHU216HW,2013-02-24 05:06:00,
2013-02-24 00:11:00,74.5,70.5,29.97,SW,225,1.1,1.6,87,0.00,,,0.00,WUHU216HW,2013-02-24 05:11:00,
2013-02-24 00:16:00,74.5,70.7,29.96,ESE,113,0.4,2.2,88,0.00,,,0.00,WUHU216HW,2013-02-24 05:16:00,
2013-02-24 00:22:00,74.5,70.7,29.97,SSW,203,0.7,2.2,88,0.00,,,0.00,WUHU216HW,2013-02-24 05:22:00,
2013-02-24 00:27:00,74.5,70.7,29.97,WSW,248,1.1,1.6,88,0.00,,,0.00,WUHU216HW,2013-02-24 05:27:00,
2013-02-24 00:32:00,74.5,70.7,29.96,SSE,158,0.9,1.6,88,0.00,,,0.00,WUHU216HW,2013-02-24 05:32:00,
2013-02-24 00:37:00,74.5,70.7,29.96,SSE,158,0.4,1.1,88,0.00,,,0.00,WUHU216HW,2013-02-24 05:37:00,
2013-02-24 00:42:00,74.5,70.7,29.96,East,90,0.2,0.9,88,0.00,,,0.00,WUHU216HW,2013-02-24 05:42:00,
2013-02-24 00:47:00,74.5,70.7,29.96,NNW,338,0.4,0.4,88,0.00,,,0.00,WUHU216HW,2013-02-24 05:47:00,
2013-02-24 00:52:00,74.5,71.1,29.97,WSW,248,1.1,1.6,89,0.00,,,0.00,WUHU216HW,2013-02-24 05:52:00,
2013-02-24 00:57:00,74.5,71.1,29.96,WSW,248,1.8,1.8,89,0.00,,,0.00,WUHU216HW,2013-02-24 05:57:00,
2013-02-24 01:02:00,74.5,71.1,29.96,SW,225,0.9,1.8,89,0.00,,,0.00,WUHU216HW,2013-02-24 06:02:00,
2013-02-24 01:08:00,74.5,71.1,29.96,North,0,0.4,1.1,89,0.00,,,0.00,WUHU216HW,2013-02-24 06:08:00,
2013-02-24 01:13:00,74.5,71.1,29.96,NNW,338,0.4,1.3,89,0.00,,,0.00,WUHU216HW,2013-02-24 06:13:00,
2013-02-24 01:18:00,74.5,71.1,29.96,ENE,68,1.1,1.3,89,0.00,,,0.00,WUHU216HW,2013-02-24 06:18:00,
2013-02-24 01:23:00,74.5,71.1,29.96,ENE,68,0.9,1.1,89,0.00,,,0.00,WUHU216HW,2013-02-24 06:23:00,
2013-02-24 01:28:00,74.5,71.1,29.96,West,270,1.1,1.8,89,0.00,,,0.00,WUHU216HW,2013-02-24 06:28:00,
2013-02-24 01:33:00,74.9,71.8,29.96,North,0,1.8,1.8,90,0.00,,,0.00,WUHU216HW,2013-02-24 06:33:00,
2013-02-24 01:38:00,74.9,71.8,29.96,NW,315,1.1,1.8,90,0.00,,,0.00,WUHU216HW,2013-02-24 06:38:00,
2013-02-24 01:43:00,74.9,71.5,29.95,SSW,203,2.0,2.5,89,0.00,,,0.00,WUHU216HW,2013-02-24 06:43:00,
2013-02-24 01:48:00,74.7,71.6,29.95,NNE,23,1.1,2.7,90,0.00,,,0.00,WUHU216HW,2013-02-24 06:48:00,
2013-02-24 01:53:00,74.7,71.3,29.95,NE,45,0.2,2.7,89,0.00,,,0.00,WUHU216HW,2013-02-24 06:53:00,
2013-02-24 01:58:00,74.7,71.3,29.95,North,0,1.1,1.1,89,0.00,,,0.00,WUHU216HW,2013-02-24 06:58:00,
2013-02-24 02:03:00,74.7,71.3,29.95,SW,225,2.5,2.5,89,0.00,,,0.00,WUHU216HW,2013-02-24 07:03:00,
2013-02-24 02:08:00,74.5,71.1,29.95,SW,225,1.6,2.5,89,0.00,,,0.00,WUHU216HW,2013-02-24 07:08:00,
2013-02-24 02:13:00,74.5,71.1,29.94,NW,315,0.7,2.5,89,0.00,,,0.00,WUHU216HW,2013-02-24 07:13:00,
2013-02-24 02:18:00,74.5,71.1,29.94,SSE,158,0.2,1.6,89,0.00,,,0.00,WUHU216HW,2013-02-24 07:18:00,
2013-02-24 02:23:00,74.3,71.3,29.94,SSE,158,0.4,0.7,90,0.00,,,0.00,WUHU216HW,2013-02-24 07:23:00,
2013-02-24 02:28:00,74.3,70.9,29.94,West,270,0.4,0.4,89,0.00,,,0.00,WUHU216HW,2013-02-24 07:28:00,
2013-02-24 02:33:00,74.3,70.9,29.94,West,270,0.0,0.4,89,0.00,,,0.00,WUHU216HW,2013-02-24 07:33:00,
2013-02-24 02:39:00,74.2,70.7,29.94,WSW,248,0.0,0.4,89,0.00,,,0.00,WUHU216HW,2013-02-24 07:39:00,
2013-02-24 02:44:00,74.2,71.1,29.94,NNE,23,0.2,0.2,90,0.00,,,0.00,WUHU216HW,2013-02-24 07:44:00,
2013-02-24 02:49:00,74.2,71.1,29.94,West,270,0.2,0.2,90,0.00,,,0.00,WUHU216HW,2013-02-24 07:49:00,
2013-02-24 02:54:00,74.2,71.1,29.94,North,0,0.4,0.4,90,0.00,,,0.00,WUHU216HW,2013-02-24 07:54:00,
2013-02-24 02:59:00,74.2,71.1,29.93,WSW,248,0.4,0.9,90,0.00,,,0.00,WUHU216HW,2013-02-24 07:59:00,
2013-02-24 03:04:00,74.0,70.9,29.93,WSW,248,1.1,1.1,90,0.00,,,0.00,WUHU216HW,2013-02-24 08:04:00,
2013-02-24 03:09:00,74.2,71.1,29.93,North,0,0.4,1.1,90,0.00,,,0.00,WUHU216HW,2013-02-24 08:09:00,
2013-02-24 03:14:00,74.2,71.1,29.93,SW,225,0.4,1.1,90,0.00,,,0.00,WUHU216HW,2013-02-24 08:14:00,
2013-02-24 03:19:00,74.0,70.9,29.93,WNW,293,0.4,0.7,90,0.00,,,0.00,WUHU216HW,2013-02-24 08:19:00,
2013-02-24 03:25:00,74.0,71.2,29.93,South,180,0.7,0.7,91,0.00,,,0.00,WUHU216HW,2013-02-24 08:25:00,
2013-02-24 03:30:00,74.0,70.9,29.92,ESE,113,0.2,0.9,90,0.00,,,0.00,WUHU216HW,2013-02-24 08:30:00,
2013-02-24 03:35:00,74.0,71.2,29.92,SE,135,0.4,0.9,91,0.00,,,0.00,WUHU216HW,2013-02-24 08:35:00,
2013-02-24 03:40:00,73.8,71.0,29.92,NW,315,0.2,0.7,91,0.00,,,0.00,WUHU216HW,2013-02-24 08:40:00,
2013-02-24 03:45:00,73.8,71.0,29.92,NW,315,0.0,0.4,91,0.00,,,0.00,WUHU216HW,2013-02-24 08:45:00,
2013-02-24 03:50:00,73.8,71.0,29.92,South,180,0.2,0.4,91,0.00,,,0.00,WUHU216HW,2013-02-24 08:50:00,
2013-02-24 03:55:00,73.8,71.0,29.93,East,90,0.0,0.4,91,0.00,,,0.00,WUHU216HW,2013-02-24 08:55:00,
2013-02-24 04:00:00,73.8,71.0,29.93,NW,315,0.2,0.4,91,0.00,,,0.00,WUHU216HW,2013-02-24 09:00:00,
2013-02-24 04:05:00,73.8,71.0,29.92,WNW,293,0.0,0.4,91,0.00,,,0.00,WUHU216HW,2013-02-24 09:05:00,
2013-02-24 04:10:00,73.8,71.0,29.92,North,0,0.4,0.4,91,0.00,,,0.00,WUHU216HW,2013-02-24 09:10:00,
2013-02-24 04:15:00,73.8,71.0,29.93,NNW,338,0.4,0.4,91,0.00,,,0.00,WUHU216HW,2013-02-24 09:15:00,
2013-02-24 04:20:00,73.6,70.8,29.93,NNW,338,0.0,0.7,91,0.00,,,0.00,WUHU216HW,2013-02-24 09:20:00,
2013-02-24 04:25:00,73.6,70.8,29.93,NNW,338,0.4,0.9,91,0.00,,,0.00,WUHU216HW,2013-02-24 09:25:00,
2013-02-24 04:30:00,73.6,70.8,29.93,WNW,293,0.2,0.9,91,0.00,,,0.00,WUHU216HW,2013-02-24 09:30:00,
2013-02-24 04:36:00,73.6,70.8,29.93,NW,315,0.0,0.4,91,0.00,,,0.00,WUHU216HW,2013-02-24 09:36:00,
2013-02-24 04:41:00,73.6,70.8,29.93,WSW,248,0.4,0.7,91,0.00,,,0.00,WUHU216HW,2013-02-24 09:41:00,
2013-02-24 04:46:00,73.6,70.8,29.93,South,180,0.4,0.7,91,0.00,,,0.00,WUHU216HW,2013-02-24 09:46:00,
2013-02-24 04:51:00,73.8,71.4,29.92,SSW,203,0.0,0.7,92,0.00,,,0.00,WUHU216HW,2013-02-24 09:51:00,
2013-02-24 04:56:00,74.0,71.6,29.93,SSE,158,0.0,0.4,92,0.00,,,0.00,WUHU216HW,2013-02-24 09:56:00,
2013-02-24 05:01:00,74.0,71.2,29.93,SSW,203,0.0,0.4,91,0.00,,,0.00,WUHU216HW,2013-02-24 10:01:00,
2013-02-24 05:06:00,73.8,71.0,29.92,West,270,0.0,0.4,91,0.00,,,0.00,WUHU216HW,2013-02-24 10:06:00,
2013-02-24 05:11:00,73.8,71.0,29.92,NNW,338,0.2,0.4,91,0.00,,,0.00,WUHU216HW,2013-02-24 10:11:00,
2013-02-24 05:16:00,73.8,71.0,29.92,ESE,113,0.7,0.7,91,0.00,,,0.00,WUHU216HW,2013-02-24 10:16:00,
2013-02-24 05:21:00,73.8,71.4,29.93,North,0,0.4,0.9,92,0.00,,,0.00,WUHU216HW,2013-02-24 10:21:00,
2013-02-24 05:26:00,73.8,71.0,29.93,West,270,0.2,0.9,91,0.00,,,0.00,WUHU216HW,2013-02-24 10:26:00,
2013-02-24 05:31:00,73.8,71.0,29.93,SE,135,0.2,0.7,91,0.00,,,0.00,WUHU216HW,2013-02-24 10:31:00,
2013-02-24 05:37:00,73.6,70.8,29.93,SSW,203,0.2,0.4,91,0.00,,,0.00,WUHU216HW,2013-02-24 10:37:00,
2013-02-24 05:42:00,73.6,70.8,29.93,SW,225,0.4,0.4,91,0.00,,,0.00,WUHU216HW,2013-02-24 10:42:00,
2013-02-24 05:47:00,73.4,70.7,29.93,SSE,158,0.0,0.4,91,0.00,,,0.00,WUHU216HW,2013-02-24 10:47:00,
2013-02-24 05:52:00,73.4,70.7,29.94,NW,315,0.4,0.4,91,0.00,,,0.00,WUHU216HW,2013-02-24 10:52:00,
2013-02-24 05:57:00,73.4,70.7,29.93,NW,315,0.2,0.4,91,0.00,,,0.00,WUHU216HW,2013-02-24 10:57:00,
2013-02-24 06:02:00,73.4,70.7,29.93,NW,315,0.0,0.4,91,0.00,,,0.00,WUHU216HW,2013-02-24 11:02:00,
2013-02-24 06:07:00,73.4,71.0,29.93,SSE,158,0.0,0.2,92,0.00,,,0.00,WUHU216HW,2013-02-24 11:07:00,
2013-02-24 06:12:00,73.3,70.8,29.94,South,180,0.0,0.2,92,0.00,,,0.00,WUHU216HW,2013-02-24 11:12:00,
2013-02-24 06:17:00,73.3,70.8,29.93,NE,45,0.2,0.2,92,0.00,,,0.00,WUHU216HW,2013-02-24 11:17:00,
2013-02-24 06:23:00,73.3,70.8,29.93,WSW,248,1.1,1.1,92,0.00,,,0.00,WUHU216HW,2013-02-24 11:23:00,
2013-02-24 06:28:00,73.3,70.8,29.94,SW,225,1.1,1.1,92,0.00,,,0.00,WUHU216HW,2013-02-24 11:28:00,
2013-02-24 06:33:00,73.3,70.8,29.94,SW,225,1.6,1.6,92,0.00,,,0.00,WUHU216HW,2013-02-24 11:33:00,
2013-02-24 06:38:00,73.1,70.3,29.94,WSW,248,1.1,1.6,91,0.00,,,0.00,WUHU216HW,2013-02-24 11:38:00,
2013-02-24 06:43:00,73.1,70.3,29.95,South,180,0.9,1.6,91,0.00,,,0.00,WUHU216HW,2013-02-24 11:43:00,
2013-02-24 06:48:00,73.1,70.3,29.95,SW,225,0.9,1.1,91,0.00,,,0.00,WUHU216HW,2013-02-24 11:48:00,
2013-02-24 06:53:00,73.3,70.8,29.95,South,180,0.0,1.1,92,0.00,,,0.00,WUHU216HW,2013-02-24 11:53:00,
2013-02-24 06:58:00,73.3,70.8,29.95,SW,225,1.1,1.1,92,0.00,,,0.00,WUHU216HW,2013-02-24 11:58:00,
2013-02-24 07:03:00,73.3,70.8,29.95,WSW,248,1.1,1.1,92,0.00,,,0.00,WUHU216HW,2013-02-24 12:03:00,
2013-02-24 07:09:00,73.1,70.3,29.95,NW,315,0.4,1.1,91,0.00,,,0.00,WUHU216HW,2013-02-24 12:09:00,
2013-02-24 07:14:00,73.1,70.3,29.96,WNW,293,0.4,1.3,91,0.00,,,0.00,WUHU216HW,2013-02-24 12:14:00,
2013-02-24 07:19:00,73.1,70.3,29.96,SSW,203,0.2,1.3,91,0.00,,,0.00,WUHU216HW,2013-02-24 12:19:00,
2013-02-24 07:24:00,73.1,70.3,29.96,NW,315,0.2,1.1,91,0.00,,,0.00,WUHU216HW,2013-02-24 12:24:00,
2013-02-24 07:29:00,73.1,70.3,29.96,WNW,293,0.0,0.7,91,0.00,,,0.00,WUHU216HW,2013-02-24 12:29:00,
2013-02-24 07:34:00,73.1,70.7,29.96,NNW,338,0.0,0.7,92,0.00,,,0.00,WUHU216HW,2013-02-24 12:34:00,
2013-02-24 07:39:00,73.1,70.3,29.96,NNW,338,0.0,0.0,91,0.00,,,0.00,WUHU216HW,2013-02-24 12:39:00,
2013-02-24 07:44:00,73.1,70.3,29.96,NNW,338,0.0,0.0,91,0.00,,,0.00,WUHU216HW,2013-02-24 12:44:00,
2013-02-24 07:49:00,73.1,70.7,29.96,NNW,338,0.0,0.0,92,0.00,,,0.00,WUHU216HW,2013-02-24 12:49:00,
2013-02-24 07:55:00,72.9,70.5,29.96,SW,225,0.4,1.1,92,0.00,,,0.00,WUHU216HW,2013-02-24 12:55:00,
2013-02-24 08:00:00,73.1,70.7,29.96,WNW,293,0.7,1.1,92,0.00,,,0.00,WUHU216HW,2013-02-24 13:00:00,
2013-02-24 08:05:00,73.3,70.8,29.96,SW,225,1.8,2.0,92,0.00,,,0.00,WUHU216HW,2013-02-24 13:05:00,
2013-02-24 08:10:00,73.4,71.3,29.96,WSW,248,1.8,2.2,93,0.00,,,0.00,WUHU216HW,2013-02-24 13:10:00,
2013-02-24 08:15:00,73.4,71.3,29.96,NNW,338,1.1,3.1,93,0.00,,,0.00,WUHU216HW,2013-02-24 13:15:00,
2013-02-24 08:20:00,73.6,71.5,29.96,WNW,293,1.6,3.1,93,0.00,,,0.00,WUHU216HW,2013-02-24 13:20:00,
2013-02-24 08:25:00,73.8,71.6,29.97,West,270,0.4,1.8,93,0.00,,,0.00,WUHU216HW,2013-02-24 13:25:00,
2013-02-24 08:30:00,74.0,71.8,29.97,NW,315,1.3,2.2,93,0.00,,,0.00,WUHU216HW,2013-02-24 13:30:00,
2013-02-24 08:35:00,74.2,72.0,29.97,SW,225,1.8,2.2,93,0.01,,,0.00,WUHU216HW,2013-02-24 13:35:00,
2013-02-24 08:40:00,74.5,72.4,29.97,SW,225,5.4,5.4,93,0.01,,,0.00,WUHU216HW,2013-02-24 13:40:00,
2013-02-24 08:45:00,74.9,73.1,29.97,WSW,248,5.6,5.6,94,0.01,,,0.00,WUHU216HW,2013-02-24 13:45:00,
2013-02-24 08:50:00,76.0,73.8,29.97,West,270,2.9,5.6,93,0.01,,,0.00,WUHU216HW,2013-02-24 13:50:00,
2013-02-24 08:55:00,76.1,74.0,29.97,SW,225,3.4,5.6,93,0.01,,,0.00,WUHU216HW,2013-02-24 13:55:00,
2013-02-24 09:01:00,76.7,73.9,29.98,SW,225,4.0,4.7,91,0.01,,,0.00,WUHU216HW,2013-02-24 14:01:00,
2013-02-24 09:06:00,76.7,73.9,29.98,NW,315,4.3,4.3,91,0.01,,,0.00,WUHU216HW,2013-02-24 14:06:00,
2013-02-24 09:11:00,76.9,74.1,29.98,NNE,23,3.4,4.3,91,0.01,,,0.00,WUHU216HW,2013-02-24 14:11:00,
2013-02-24 09:16:00,77.0,74.0,29.98,WSW,248,1.8,4.3,90,0.01,,,0.00,WUHU216HW,2013-02-24 14:16:00,
2013-02-24 09:21:00,78.5,75.4,29.98,NNW,338,1.6,3.4,90,0.01,,,0.00,WUHU216HW,2013-02-24 14:21:00,
2013-02-24 09:26:00,79.2,75.1,29.98,West,270,3.1,6.7,87,0.01,,,0.00,WUHU216HW,2013-02-24 14:26:00,
2013-02-24 09:31:00,79.4,74.9,29.98,SW,225,4.7,6.7,86,0.01,,,0.00,WUHU216HW,2013-02-24 14:31:00,
2013-02-24 09:36:00,79.0,74.2,29.98,SW,225,5.1,6.3,85,0.00,,,0.00,WUHU216HW,2013-02-24 14:36:00,
2013-02-24 09:41:00,79.0,74.2,29.98,West,270,2.2,6.3,85,0.00,,,0.00,WUHU216HW,2013-02-24 14:41:00,
2013-02-24 09:46:00,78.8,74.0,29.98,SW,225,5.4,5.6,85,0.00,,,0.00,WUHU216HW,2013-02-24 14:46:00,
2013-02-24 09:51:00,79.0,74.2,29.98,NNW,338,2.9,6.0,85,0.00,,,0.00,WUHU216HW,2013-02-24 14:51:00,
2013-02-24 09:56:00,79.6,74.4,29.98,WSW,248,5.4,7.6,84,0.00,,,0.00,WUHU216HW,2013-02-24 14:56:00,
2013-02-24 10:01:00,80.1,74.5,29.98,SW,225,5.4,7.6,83,0.00,,,0.00,WUHU216HW,2013-02-24 15:01:00,
2013-02-24 10:06:00,80.1,74.5,29.98,SW,225,4.7,6.5,83,0.00,,,0.00,WUHU216HW,2013-02-24 15:06:00,
2013-02-24 10:11:00,80.1,74.5,29.98,SW,225,4.7,5.4,83,0.00,,,0.00,WUHU216HW,2013-02-24 15:11:00,
2013-02-24 11:00:00,83.2,74.8,29.98,SSW,203,4.5,4.5,76,0.00,,,0.00,WUHU216HW,2013-02-24 16:00:00,
2013-02-24 11:05:00,83.2,74.4,29.98,WSW,248,2.0,4.5,75,0.00,,,0.00,WUHU216HW,2013-02-24 16:05:00,
2013-02-24 11:10:00,83.5,74.4,29.98,West,270,1.8,4.5,74,0.00,,,0.00,WUHU216HW,2013-02-24 16:10:00,
2013-02-24 11:15:00,84.1,74.1,29.97,WSW,248,1.8,2.2,72,0.00,,,0.00,WUHU216HW,2013-02-24 16:15:00,
2013-02-24 11:20:00,85.3,75.3,29.97,SW,225,1.1,2.2,72,0.00,,,0.00,WUHU216HW,2013-02-24 16:20:00,
2013-02-24 11:25:00,85.3,75.3,29.97,SW,225,3.8,3.8,72,0.00,,,0.00,WUHU216HW,2013-02-24 16:25:00,
2013-02-24 11:30:00,85.3,74.1,29.97,NNE,23,1.3,3.8,69,0.00,,,0.00,WUHU216HW,2013-02-24 16:30:00,
2013-02-24 11:35:00,85.3,74.5,29.97,WSW,248,3.1,3.8,70,0.00,,,0.00,WUHU216HW,2013-02-24 16:35:00,
2013-02-24 11:41:00,86.4,74.6,29.96,SW,225,3.4,6.7,68,0.00,,,0.00,WUHU216HW,2013-02-24 16:41:00,
2013-02-24 11:46:00,86.8,74.5,29.97,ENE,68,0.9,6.7,67,0.00,,,0.00,WUHU216HW,2013-02-24 16:46:00,
2013-02-24 11:51:00,86.8,74.5,29.96,SE,135,2.0,3.4,67,0.00,,,0.00,WUHU216HW,2013-02-24 16:51:00,
2013-02-24 11:56:00,86.4,74.2,29.96,NW,315,1.6,2.0,67,0.00,,,0.00,WUHU216HW,2013-02-24 16:56:00,
2013-02-24 12:01:00,86.2,73.1,29.96,SW,225,4.7,4.7,65,0.00,,,0.00,WUHU216HW,2013-02-24 17:01:00,
2013-02-24 12:06:00,86.4,74.2,29.96,West,270,1.1,4.7,67,0.00,,,0.00,WUHU216HW,2013-02-24 17:06:00,
2013-02-24 12:11:00,86.8,74.1,29.95,West,270,5.4,5.4,66,0.00,,,0.00,WUHU216HW,2013-02-24 17:11:00,
2013-02-24 12:16:00,86.8,74.1,29.95,WSW,248,0.7,5.4,66,0.00,,,0.00,WUHU216HW,2013-02-24 17:16:00,
2013-02-24 12:21:00,87.1,73.4,29.95,WSW,248,3.1,5.4,64,0.00,,,0.00,WUHU216HW,2013-02-24 17:21:00,
2013-02-24 12:27:00,87.3,73.6,29.94,West,270,1.3,5.6,64,0.00,,,0.00,WUHU216HW,2013-02-24 17:27:00,
2013-02-24 12:32:00,87.1,73.4,29.94,WNW,293,3.8,5.6,64,0.00,,,0.00,WUHU216HW,2013-02-24 17:32:00,
2013-02-24 12:37:00,86.8,73.1,29.94,WNW,293,2.2,3.8,64,0.00,,,0.00,WUHU216HW,2013-02-24 17:37:00,
2013-02-24 12:42:00,86.4,73.3,29.94,NNW,338,3.4,4.0,65,0.00,,,0.00,WUHU216HW,2013-02-24 17:42:00,
2013-02-24 12:47:00,86.2,72.6,29.93,North,0,1.8,4.0,64,0.00,,,0.00,WUHU216HW,2013-02-24 17:47:00,
2013-02-24 12:52:00,86.8,73.1,29.93,NNE,23,2.7,4.5,64,0.00,,,0.00,WUHU216HW,2013-02-24 17:52:00,
2013-02-24 12:57:00,87.1,73.4,29.93,North,0,3.1,4.5,64,0.00,,,0.00,WUHU216HW,2013-02-24 17:57:00,
2013-02-24 13:02:00,87.3,73.6,29.93,North,0,1.6,3.1,64,0.00,,,0.00,WUHU216HW,2013-02-24 18:02:00,
2013-02-24 13:07:00,87.3,73.2,29.93,West,270,2.5,3.1,63,0.00,,,0.00,WUHU216HW,2013-02-24 18:07:00,
2013-02-24 13:12:00,87.5,72.5,29.93,SW,225,1.6,2.5,61,0.00,,,0.00,WUHU216HW,2013-02-24 18:12:00,
2013-02-24 13:17:00,87.7,72.6,29.92,NNW,338,1.8,2.5,61,0.00,,,0.00,WUHU216HW,2013-02-24 18:17:00,
2013-02-24 13:22:00,88.2,71.7,29.92,WSW,248,4.7,4.7,58,0.00,,,0.00,WUHU216HW,2013-02-24 18:22:00,
2013-02-24 13:27:00,88.6,71.4,29.92,WSW,248,1.8,5.8,57,0.00,,,0.00,WUHU216HW,2013-02-24 18:27:00,
2013-02-24 13:33:00,88.7,72.1,29.91,North,0,2.7,5.8,58,0.00,,,0.00,WUHU216HW,2013-02-24 18:33:00,
2013-02-24 13:38:00,88.6,72.5,29.91,North,0,3.6,3.6,59,0.00,,,0.00,WUHU216HW,2013-02-24 18:38:00,
2013-02-24 13:43:00,88.2,71.1,29.91,WNW,293,2.5,3.6,57,0.00,,,0.00,WUHU216HW,2013-02-24 18:43:00,
2013-02-24 13:48:00,88.2,71.1,29.91,NNW,338,1.1,3.6,57,0.00,,,0.00,WUHU216HW,2013-02-24 18:48:00,
2013-02-24 13:53:00,88.4,71.7,29.91,ESE,113,0.4,2.5,58,0.00,,,0.00,WUHU216HW,2013-02-24 18:53:00,
2013-02-24 13:58:00,88.2,71.7,29.91,WSW,248,0.9,2.0,58,0.00,,,0.00,WUHU216HW,2013-02-24 18:58:00,
2013-02-24 14:03:00,88.2,71.7,29.90,WSW,248,2.5,2.5,58,0.00,,,0.00,WUHU216HW,2013-02-24 19:03:00,
2013-02-24 14:08:00,88.2,71.1,29.90,ESE,113,0.4,2.5,57,0.00,,,0.00,WUHU216HW,2013-02-24 19:08:00,
2013-02-24 14:13:00,88.2,71.7,29.90,NNE,23,1.8,2.5,58,0.00,,,0.00,WUHU216HW,2013-02-24 19:13:00,
2013-02-24 14:18:00,88.9,73.8,29.90,ESE,113,1.8,1.8,61,0.00,,,0.00,WUHU216HW,2013-02-24 19:18:00,
2013-02-24 14:24:00,88.6,73.4,29.90,SE,135,2.5,2.5,61,0.00,,,0.00,WUHU216HW,2013-02-24 19:24:00,
2013-02-24 14:29:00,87.3,73.2,29.90,SE,135,5.1,5.1,63,0.00,,,0.00,WUHU216HW,2013-02-24 19:29:00,
2013-02-24 14:34:00,87.1,73.9,29.90,ESE,113,1.3,5.1,65,0.00,,,0.00,WUHU216HW,2013-02-24 19:34:00,
2013-02-24 14:39:00,87.5,73.8,29.90,SE,135,2.9,5.1,64,0.00,,,0.00,WUHU216HW,2013-02-24 19:39:00,
2013-02-24 14:44:00,86.6,73.5,29.89,ESE,113,2.5,3.8,65,0.00,,,0.00,WUHU216HW,2013-02-24 19:44:00,
2013-02-24 14:49:00,86.4,73.7,29.89,SE,135,4.0,4.0,66,0.00,,,0.00,WUHU216HW,2013-02-24 19:49:00,
2013-02-24 14:54:00,86.0,72.9,29.89,South,180,2.0,4.0,65,0.00,,,0.00,WUHU216HW,2013-02-24 19:54:00,
2013-02-24 14:59:00,85.3,73.2,29.89,SE,135,3.4,4.0,67,0.00,,,0.00,WUHU216HW,2013-02-24 19:59:00,
2013-02-24 15:04:00,84.6,72.5,29.89,South,180,1.6,3.4,67,0.00,,,0.00,WUHU216HW,2013-02-24 20:04:00,
2013-02-24 15:09:00,84.2,72.5,29.89,WSW,248,0.7,3.4,68,0.00,,,0.00,WUHU216HW,2013-02-24 20:09:00,
2013-02-24 15:14:00,84.1,71.5,29.89,WSW,248,4.5,4.7,66,0.00,,,0.00,WUHU216HW,2013-02-24 20:14:00,
2013-02-24 15:19:00,85.0,72.4,29.89,NW,315,4.3,4.7,66,0.00,,,0.00,WUHU216HW,2013-02-24 20:19:00,
2013-02-24 15:24:00,85.3,71.7,29.89,West,270,2.5,4.7,64,0.00,,,0.00,WUHU216HW,2013-02-24 20:24:00,
2013-02-24 15:30:00,85.0,71.9,29.89,NNW,338,2.7,4.3,65,0.00,,,0.00,WUHU216HW,2013-02-24 20:30:00,
2013-02-24 15:35:00,84.2,71.6,29.89,ESE,113,1.8,2.7,66,0.00,,,0.00,WUHU216HW,2013-02-24 20:35:00,
2013-02-24 15:40:00,83.7,71.6,29.89,ESE,113,2.2,2.7,67,0.00,,,0.00,WUHU216HW,2013-02-24 20:40:00,
2013-02-24 15:45:00,85.0,72.8,29.88,North,0,1.6,2.5,67,0.00,,,0.00,WUHU216HW,2013-02-24 20:45:00,
2013-02-24 15:50:00,85.3,72.7,29.88,ESE,113,1.1,2.5,66,0.00,,,0.00,WUHU216HW,2013-02-24 20:50:00,
2013-02-24 15:55:00,84.4,72.3,29.89,ESE,113,2.0,2.7,67,0.00,,,0.00,WUHU216HW,2013-02-24 20:55:00,
2013-02-24 16:00:00,84.2,72.1,29.89,WSW,248,2.2,3.4,67,0.00,,,0.00,WUHU216HW,2013-02-24 21:00:00,
2013-02-24 16:05:00,83.5,71.4,29.89,WNW,293,1.8,3.4,67,0.00,,,0.00,WUHU216HW,2013-02-24 21:05:00,
2013-02-24 16:10:00,83.0,71.7,29.89,ESE,113,2.5,2.5,69,0.00,,,0.00,WUHU216HW,2013-02-24 21:10:00,
2013-02-24 16:15:00,84.1,71.9,29.89,WSW,248,2.9,5.1,67,0.00,,,0.00,WUHU216HW,2013-02-24 21:15:00,
2013-02-24 16:20:00,83.9,71.7,29.89,ENE,68,4.7,5.1,67,0.00,,,0.00,WUHU216HW,2013-02-24 21:20:00,
2013-02-24 16:25:00,83.2,71.0,29.89,SE,135,2.7,4.7,67,0.00,,,0.00,WUHU216HW,2013-02-24 21:25:00,
2013-02-24 16:31:00,82.8,71.6,29.89,SSW,203,2.9,4.7,69,0.00,,,0.00,WUHU216HW,2013-02-24 21:31:00,
2013-02-24 16:36:00,83.3,71.6,29.89,NNW,338,2.7,5.4,68,0.00,,,0.00,WUHU216HW,2013-02-24 21:36:00,
2013-02-24 16:41:00,83.3,71.6,29.89,NW,315,2.9,5.4,68,0.00,,,0.00,WUHU216HW,2013-02-24 21:41:00,
2013-02-24 16:46:00,82.8,71.1,29.89,North,0,4.7,4.7,68,0.00,,,0.00,WUHU216HW,2013-02-24 21:46:00,
2013-02-24 16:51:00,82.4,71.2,29.89,WNW,293,1.6,4.9,69,0.00,,,0.00,WUHU216HW,2013-02-24 21:51:00,
2013-02-24 16:56:00,82.4,71.2,29.89,SW,225,4.5,4.9,69,0.00,,,0.00,WUHU216HW,2013-02-24 21:56:00,
2013-02-24 17:01:00,82.4,71.2,29.89,East,90,3.4,4.9,69,0.00,,,0.00,WUHU216HW,2013-02-24 22:01:00,
2013-02-24 17:06:00,83.3,71.6,29.90,WNW,293,3.4,4.5,68,0.00,,,0.00,WUHU216HW,2013-02-24 22:06:00,
2013-02-24 17:11:00,82.8,71.1,29.90,SE,135,2.0,3.6,68,0.00,,,0.00,WUHU216HW,2013-02-24 22:11:00,
2013-02-24 17:16:00,82.4,71.2,29.90,NNW,338,1.6,3.4,69,0.00,,,0.00,WUHU216HW,2013-02-24 22:16:00,
2013-02-24 17:21:00,81.7,70.6,29.90,NNE,23,3.1,4.5,69,0.00,,,0.00,WUHU216HW,2013-02-24 22:21:00,
2013-02-24 17:27:00,81.7,71.0,29.90,North,0,3.1,4.5,70,0.00,,,0.00,WUHU216HW,2013-02-24 22:27:00,
2013-02-24 17:32:00,82.6,71.8,29.90,NNW,338,3.4,4.7,70,0.00,,,0.00,WUHU216HW,2013-02-24 22:32:00,
2013-02-24 17:37:00,82.8,72.0,29.90,SW,225,4.5,4.7,70,0.00,,,0.00,WUHU216HW,2013-02-24 22:37:00,
2013-02-24 17:42:00,82.1,70.8,29.90,SSW,203,4.0,6.0,69,0.00,,,0.00,WUHU216HW,2013-02-24 22:42:00,
2013-02-24 17:47:00,81.7,71.0,29.90,North,0,4.7,6.0,70,0.00,,,0.00,WUHU216HW,2013-02-24 22:47:00,
2013-02-24 17:52:00,81.5,70.8,29.90,NNE,23,4.0,6.9,70,0.00,,,0.00,WUHU216HW,2013-02-24 22:52:00,
2013-02-24 17:57:00,81.2,70.5,29.90,WNW,293,1.8,4.7,70,0.00,,,0.00,WUHU216HW,2013-02-24 22:57:00,
2013-02-24 18:02:00,81.5,71.3,29.90,SW,225,4.7,5.8,71,0.00,,,0.00,WUHU216HW,2013-02-24 23:02:00,
2013-02-24 18:07:00,81.7,71.0,29.91,WNW,293,2.5,5.8,70,0.00,,,0.00,WUHU216HW,2013-02-24 23:07:00,
2013-02-24 18:12:00,81.7,71.0,29.91,NNW,338,2.2,2.5,70,0.00,,,0.00,WUHU216HW,2013-02-24 23:12:00,
2013-02-24 18:18:00,81.5,71.3,29.91,North,0,2.7,3.6,71,0.00,,,0.00,WUHU216HW,2013-02-24 23:18:00,
2013-02-24 18:23:00,81.0,70.7,29.91,WSW,248,2.7,4.9,71,0.00,,,0.00,WUHU216HW,2013-02-24 23:23:00,
2013-02-24 18:28:00,81.2,70.9,29.91,NNW,338,4.3,4.9,71,0.00,,,0.00,WUHU216HW,2013-02-24 23:28:00,
2013-02-24 18:33:00,82.6,71.8,29.91,NNE,23,3.4,4.3,70,0.00,,,0.00,WUHU216HW,2013-02-24 23:33:00,
2013-02-24 18:38:00,82.4,71.6,29.91,WNW,293,2.2,4.3,70,0.00,,,0.00,WUHU216HW,2013-02-24 23:38:00,
2013-02-24 18:43:00,81.5,70.8,29.91,ENE,68,1.6,3.4,70,0.00,,,0.00,WUHU216HW,2013-02-24 23:43:00,
2013-02-24 18:48:00,82.8,72.5,29.91,ENE,68,2.9,3.6,71,0.00,,,0.00,WUHU216HW,2013-02-24 23:48:00,
2013-02-24 18:54:00,82.8,71.6,29.91,NNW,338,3.4,3.6,69,0.00,,,0.00,WUHU216HW,2013-02-24 23:54:00,
2013-02-24 18:59:00,81.7,70.1,29.91,WNW,293,4.0,6.0,68,0.00,,,0.00,WUHU216HW,2013-02-24 23:59:00,
2013-02-24 19:04:00,81.0,69.5,29.91,NW,315,3.6,6.0,68,0.00,,,0.00,WUHU216HW,2013-02-25 00:04:00,
2013-02-24 19:09:00,80.6,69.6,29.92,North,0,2.5,4.0,69,0.00,,,0.00,WUHU216HW,2013-02-25 00:09:00,
2013-02-24 19:14:00,80.3,69.7,29.92,North,0,2.0,4.0,70,0.00,,,0.00,WUHU216HW,2013-02-25 00:14:00,
2013-02-24 19:19:00,80.1,69.5,29.92,WSW,248,3.1,3.4,70,0.00,,,0.00,WUHU216HW,2013-02-25 00:19:00,
2013-02-24 19:24:00,80.1,69.8,29.91,WNW,293,2.5,3.4,71,0.00,,,0.00,WUHU216HW,2013-02-25 00:24:00,
2013-02-24 19:29:00,81.0,70.7,29.91,SSW,203,2.0,3.1,71,0.00,,,0.00,WUHU216HW,2013-02-25 00:29:00,
2013-02-24 19:34:00,81.4,70.7,29.92,NW,315,0.7,2.5,70,0.00,,,0.00,WUHU216HW,2013-02-25 00:34:00,
2013-02-24 19:39:00,80.8,70.6,29.92,WSW,248,1.8,2.7,71,0.00,,,0.00,WUHU216HW,2013-02-25 00:39:00,
2013-02-24 19:44:00,80.3,70.0,29.92,South,180,2.5,2.7,71,0.00,,,0.00,WUHU216HW,2013-02-25 00:44:00,
2013-02-24 19:50:00,80.1,70.3,29.92,West,270,3.1,3.1,72,0.00,,,0.00,WUHU216HW,2013-02-25 00:50:00,
2013-02-24 19:55:00,79.9,70.1,29.92,WNW,293,1.3,3.1,72,0.00,,,0.00,WUHU216HW,2013-02-25 00:55:00,
2013-02-24 20:00:00,79.7,70.3,29.93,ESE,113,0.9,3.1,73,0.00,,,0.00,WUHU216HW,2013-02-25 01:00:00,
2013-02-24 20:05:00,79.6,70.1,29.93,SSW,203,0.9,1.3,73,0.00,,,0.00,WUHU216HW,2013-02-25 01:05:00,
2013-02-24 20:10:00,79.6,70.1,29.93,West,270,0.4,0.9,73,0.00,,,0.00,WUHU216HW,2013-02-25 01:10:00,
2013-02-24 20:15:00,79.4,70.4,29.93,NW,315,1.1,1.1,74,0.00,,,0.00,WUHU216HW,2013-02-25 01:15:00,
2013-02-24 20:20:00,79.2,70.2,29.93,SSE,158,0.2,1.1,74,0.00,,,0.00,WUHU216HW,2013-02-25 01:20:00,
2013-02-24 20:25:00,79.2,70.6,29.92,South,180,0.4,1.1,75,0.00,,,0.00,WUHU216HW,2013-02-25 01:25:00,
2013-02-24 20:30:00,79.0,70.4,29.93,SSE,158,0.4,0.4,75,0.00,,,0.00,WUHU216HW,2013-02-25 01:30:00,
2013-02-24 20:36:00,79.6,70.9,29.93,SSW,203,0.2,0.4,75,0.00,,,0.00,WUHU216HW,2013-02-25 01:36:00,
2013-02-24 20:41:00,79.7,70.8,29.93,SSW,203,0.4,0.4,74,0.00,,,0.00,WUHU216HW,2013-02-25 01:41:00,
2013-02-24 20:46:00,79.6,70.6,29.94,SSW,203,0.0,0.4,74,0.00,,,0.00,WUHU216HW,2013-02-25 01:46:00,
2013-02-24 20:51:00,79.6,70.6,29.93,SW,225,0.0,0.0,74,0.00,,,0.00,WUHU216HW,2013-02-25 01:51:00,
2013-02-24 20:56:00,79.2,70.2,29.93,SW,225,0.2,0.4,74,0.00,,,0.00,WUHU216HW,2013-02-25 01:56:00,
2013-02-24 21:01:00,79.0,70.0,29.93,SW,225,1.1,1.1,74,0.00,,,0.00,WUHU216HW,2013-02-25 02:01:00,
2013-02-24 21:06:00,78.8,70.2,29.93,SW,225,0.9,1.1,75,0.00,,,0.00,WUHU216HW,2013-02-25 02:06:00,
2013-02-24 21:12:00,78.5,69.8,29.93,SW,225,1.8,2.0,75,0.00,,,0.00,WUHU216HW,2013-02-25 02:12:00,
2013-02-24 21:17:00,78.5,69.8,29.93,SW,225,1.3,2.5,75,0.00,,,0.00,WUHU216HW,2013-02-25 02:17:00,
2013-02-24 21:22:00,78.5,69.8,29.93,South,180,0.9,2.5,75,0.00,,,0.00,WUHU216HW,2013-02-25 02:22:00,
2013-02-24 21:27:00,78.3,69.7,29.94,WSW,248,1.3,2.5,75,0.00,,,0.00,WUHU216HW,2013-02-25 02:27:00,
2013-02-24 21:32:00,78.1,69.9,29.94,SW,225,2.7,2.7,76,0.00,,,0.00,WUHU216HW,2013-02-25 02:32:00,
2013-02-24 21:37:00,78.1,69.5,29.94,SW,225,1.6,2.7,75,0.00,,,0.00,WUHU216HW,2013-02-25 02:37:00,
2013-02-24 21:42:00,77.9,69.8,29.94,WSW,248,1.8,2.7,76,0.00,,,0.00,WUHU216HW,2013-02-25 02:42:00,
2013-02-24 21:47:00,77.8,69.6,29.94,WSW,248,1.3,2.5,76,0.00,,,0.00,WUHU216HW,2013-02-25 02:47:00,
2013-02-24 21:52:00,77.6,69.4,29.93,SW,225,2.5,2.9,76,0.00,,,0.00,WUHU216HW,2013-02-25 02:52:00,
2013-02-24 21:58:00,77.6,69.4,29.93,SW,225,2.2,2.9,76,0.00,,,0.00,WUHU216HW,2013-02-25 02:58:00,
2013-02-24 22:03:00,77.4,69.2,29.93,SW,225,2.5,2.5,76,0.00,,,0.00,WUHU216HW,2013-02-25 03:03:00,
2013-02-24 22:08:00,77.6,69.4,29.93,WSW,248,2.5,2.5,76,0.00,,,0.00,WUHU216HW,2013-02-25 03:08:00,
2013-02-24 22:13:00,78.1,69.5,29.93,WSW,248,2.2,2.5,75,0.00,,,0.00,WUHU216HW,2013-02-25 03:13:00,
2013-02-24 22:18:00,78.1,69.5,29.93,WSW,248,1.8,2.5,75,0.00,,,0.00,WUHU216HW,2013-02-25 03:18:00,
2013-02-24 22:23:00,77.9,69.3,29.93,SW,225,2.2,2.2,75,0.00,,,0.00,WUHU216HW,2013-02-25 03:23:00,
2013-02-24 22:28:00,77.8,69.2,29.93,SW,225,1.1,2.2,75,0.00,,,0.00,WUHU216HW,2013-02-25 03:28:00,
2013-02-24 22:33:00,77.6,69.0,29.93,SW,225,1.8,2.2,75,0.00,,,0.00,WUHU216HW,2013-02-25 03:33:00,
2013-02-24 22:38:00,77.4,69.2,29.93,West,270,0.9,1.8,76,0.00,,,0.00,WUHU216HW,2013-02-25 03:38:00,
2013-02-24 22:44:00,77.0,69.2,29.93,SSW,203,0.2,1.8,77,0.00,,,0.00,WUHU216HW,2013-02-25 03:44:00,
2013-02-24 22:49:00,77.0,69.2,29.93,SW,225,1.1,1.1,77,0.00,,,0.00,WUHU216HW,2013-02-25 03:49:00,
2013-02-24 22:54:00,77.0,69.2,29.93,NW,315,0.0,1.1,77,0.00,,,0.00,WUHU216HW,2013-02-25 03:54:00,
2013-02-24 22:59:00,76.7,69.3,29.92,East,90,0.0,0.4,78,0.00,,,0.00,WUHU216HW,2013-02-25 03:59:00,
2013-02-24 23:04:00,76.5,69.1,29.92,East,90,0.0,0.4,78,0.00,,,0.00,WUHU216HW,2013-02-25 04:04:00,
2013-02-24 23:09:00,76.3,68.9,29.92,SSE,158,0.4,0.4,78,0.00,,,0.00,WUHU216HW,2013-02-25 04:09:00,
2013-02-24 23:14:00,76.3,68.9,29.92,SSE,158,0.0,0.4,78,0.00,,,0.00,WUHU216HW,2013-02-25 04:14:00,
2013-02-24 23:19:00,76.1,69.2,29.91,South,180,0.0,0.4,79,0.00,,,0.00,WUHU216HW,2013-02-25 04:19:00,
2013-02-24 23:24:00,76.0,69.0,29.92,SE,135,0.0,0.0,79,0.00,,,0.00,WUHU216HW,2013-02-25 04:24:00,
2013-02-24 23:29:00,76.0,69.0,29.91,SE,135,0.0,0.0,79,0.00,,,0.00,WUHU216HW,2013-02-25 04:29:00,
2013-02-24 23:34:00,75.8,68.9,29.91,SE,135,0.0,0.0,79,0.00,,,0.00,WUHU216HW,2013-02-25 04:34:00,
2013-02-24 23:39:00,75.8,68.9,29.91,SSE,158,0.0,0.4,79,0.00,,,0.00,WUHU216HW,2013-02-25 04:39:00,
2013-02-24 23:44:00,75.8,69.2,29.91,SE,135,0.2,0.4,80,0.00,,,0.00,WUHU216HW,2013-02-25 04:44:00,
2013-02-24 23:49:00,75.6,69.1,29.91,SE,135,0.0,0.2,80,0.00,,,0.00,WUHU216HW,2013-02-25 04:49:00,
2013-02-24 23:55:00,75.6,69.1,29.91,SE,135,0.0,0.2,80,0.00,,,0.00,WUHU216HW,2013-02-25 04:55:00,